createdAt,value
2023-03-10T00:00:06.004Z,95.37
2023-03-10T00:02:34.986Z,95.70
2023-03-10T00:05:04.754Z,95.94
2023-03-10T00:07:33.024Z,96.21
2023-03-10T00:10:00.896Z,96.85
2023-03-10T00:12:28.706Z,96.81
2023-03-10T00:14:56.582Z,97.31
2023-03-10T00:17:24.228Z,97.44
2023-03-10T00:19:51.938Z,97.89
2023-03-10T00:22:20.838Z,98.20
2023-03-10T00:24:48.491Z,98.02
2023-03-10T00:27:16.362Z,99.02
2023-03-10T00:29:44.019Z,98.95
2023-03-10T00:32:11.609Z,98.83
2023-03-10T00:34:39.441Z,99.19
2023-03-10T00:37:07.273Z,98.70
2023-03-10T00:39:36.349Z,98.49
2023-03-10T00:42:04.222Z,98.06
2023-03-10T00:44:31.817Z,97.79
2023-03-10T00:46:59.439Z,97.78
2023-03-10T00:49:27.062Z,98.32
2023-03-10T00:51:54.661Z,98.35
2023-03-10T00:54:22.302Z,97.44
2023-03-10T00:56:51.298Z,97.85
2023-03-10T00:59:18.880Z,98.20
2023-03-10T01:01:46.655Z,98.37
2023-03-10T01:04:15.881Z,99.02
2023-03-10T01:06:45.180Z,99.18
2023-03-10T01:09:12.786Z,98.07
2023-03-10T01:11:40.389Z,98.45
2023-03-10T01:14:11.699Z,98.96
2023-03-10T01:16:39.308Z,99.23
2023-03-10T01:19:06.951Z,99.90
2023-03-10T01:21:36.423Z,100.00
2023-03-10T01:24:05.173Z,99.71
2023-03-10T01:26:33.504Z,100.00
2023-03-10T01:29:01.094Z,100.00
2023-03-10T01:31:30.119Z,100.00
2023-03-10T01:33:57.797Z,100.00
2023-03-10T01:36:27.537Z,100.00
2023-03-10T01:38:56.499Z,100.00
2023-03-10T01:41:25.831Z,100.00
2023-03-10T01:43:54.672Z,100.00
2023-03-10T01:46:38.606Z,100.00
2023-03-10T01:49:10.336Z,100.00
2023-03-10T01:51:39.226Z,100.00
2023-03-10T01:54:08.307Z,100.00
2023-03-10T01:56:36.312Z,100.00
2023-03-10T01:59:04.246Z,100.00
2023-03-10T02:01:33.009Z,100.00
2023-03-10T02:04:04.816Z,100.00
2023-03-10T02:06:33.428Z,100.00
2023-03-10T02:09:02.735Z,100.00
2023-03-10T02:11:30.683Z,100.00
2023-03-10T02:13:58.394Z,100.00
2023-03-10T02:16:26.097Z,100.00
2023-03-10T02:18:53.813Z,100.00
2023-03-10T02:21:28.805Z,100.00
2023-03-10T02:24:01.602Z,100.00
2023-03-10T02:26:37.013Z,100.00
2023-03-10T02:29:08.520Z,100.00
2023-03-10T02:31:37.124Z,100.00
2023-03-10T02:34:06.633Z,100.00
2023-03-10T02:36:34.329Z,100.00
2023-03-10T02:39:01.925Z,100.00
2023-03-10T02:41:31.853Z,100.00
2023-03-10T02:44:01.270Z,100.00
2023-03-10T02:46:30.262Z,100.00
2023-03-10T02:49:00.298Z,100.00
2023-03-10T02:51:31.016Z,100.00
2023-03-10T02:54:00.311Z,100.00
2023-03-10T02:56:27.934Z,100.00
2023-03-10T02:58:55.460Z,100.00
2023-03-10T03:01:23.133Z,100.00
2023-03-10T03:03:52.138Z,100.00
2023-03-10T03:06:19.765Z,100.00
2023-03-10T03:08:47.388Z,100.00
2023-03-10T03:11:15.290Z,100.00
2023-03-10T03:13:43.290Z,100.00
2023-03-10T03:16:11.449Z,100.00
2023-03-10T03:18:39.350Z,100.00
2023-03-10T03:21:11.086Z,100.00
2023-03-10T03:23:39.355Z,100.00
2023-03-10T03:26:14.103Z,100.00
2023-03-10T03:28:42.369Z,100.00
2023-03-10T03:31:14.766Z,100.00
2023-03-10T03:33:42.397Z,100.00
2023-03-10T03:36:11.421Z,100.00
2023-03-10T03:38:39.045Z,100.00
2023-03-10T03:41:06.974Z,100.00
2023-03-10T03:43:34.572Z,100.00
2023-03-10T03:46:02.461Z,100.00
2023-03-10T03:48:30.044Z,100.00
2023-03-10T03:50:57.615Z,100.00
2023-03-10T03:53:26.537Z,100.00
2023-03-10T03:55:54.063Z,100.00
2023-03-10T03:58:21.752Z,100.00
2023-03-10T04:00:51.681Z,100.00
2023-03-10T04:03:19.598Z,100.00
2023-03-10T04:05:47.393Z,100.00
2023-03-10T04:08:15.521Z,100.00
2023-03-10T04:10:44.779Z,100.00
2023-03-10T04:13:12.336Z,100.00
2023-03-10T04:15:39.926Z,100.00
2023-03-10T04:18:08.211Z,100.00
2023-03-10T04:20:35.804Z,100.00
2023-03-10T04:23:04.137Z,100.00
2023-03-10T04:25:32.065Z,100.00
2023-03-10T04:28:00.975Z,100.00
2023-03-10T04:30:29.749Z,100.00
2023-03-10T04:32:59.119Z,100.00
2023-03-10T04:35:26.854Z,100.00
2023-03-10T04:37:54.417Z,100.00
2023-03-10T04:40:22.594Z,100.00
2023-03-10T04:42:50.184Z,100.00
2023-03-10T04:45:19.233Z,100.00
2023-03-10T04:47:46.806Z,100.00
2023-03-10T04:50:17.433Z,100.00
2023-03-10T04:52:45.434Z,100.00
2023-03-10T04:55:13.787Z,100.00
2023-03-10T04:57:41.457Z,100.00
2023-03-10T05:00:12.664Z,100.00
2023-03-10T05:02:41.715Z,100.00
2023-03-10T05:05:10.202Z,100.00
2023-03-10T05:07:38.185Z,99.19
2023-03-10T05:10:06.836Z,99.18
2023-03-10T05:12:34.422Z,98.53
2023-03-10T05:15:02.042Z,98.49
2023-03-10T05:17:30.175Z,99.28
2023-03-10T05:19:59.731Z,98.97
2023-03-10T05:22:27.387Z,98.85
2023-03-10T05:24:54.956Z,99.12
2023-03-10T05:27:22.543Z,99.20
2023-03-10T05:29:50.077Z,99.34
2023-03-10T05:32:17.793Z,99.75
2023-03-10T05:34:45.404Z,100.00
2023-03-10T05:37:14.289Z,100.00
2023-03-10T05:39:43.710Z,100.00
2023-03-10T05:42:12.324Z,100.00
2023-03-10T05:44:40.000Z,100.00
2023-03-10T05:47:08.026Z,100.00
2023-03-10T05:49:38.524Z,100.00
2023-03-10T05:52:07.079Z,100.00
2023-03-10T05:54:36.048Z,100.00
2023-03-10T05:57:03.679Z,100.00
2023-03-10T05:59:31.409Z,100.00
2023-03-10T06:01:58.929Z,100.00
2023-03-10T06:04:28.326Z,100.00
2023-03-10T06:06:56.643Z,100.00
2023-03-10T06:09:24.186Z,100.00
2023-03-10T06:11:53.066Z,100.00
2023-03-10T06:14:20.971Z,100.00
2023-03-10T06:16:51.605Z,100.00
2023-03-10T06:19:19.339Z,100.00
2023-03-10T06:21:46.934Z,100.00
2023-03-10T06:24:14.710Z,100.00
2023-03-10T06:26:42.614Z,100.00
2023-03-10T06:29:11.583Z,100.00
2023-03-10T06:31:39.347Z,100.00
2023-03-10T06:34:06.927Z,99.92
2023-03-10T06:36:34.457Z,100.00
2023-03-10T06:39:02.128Z,100.00
2023-03-10T06:41:29.826Z,100.00
2023-03-10T06:43:57.464Z,99.95
2023-03-10T06:46:26.608Z,99.68
2023-03-10T06:48:54.176Z,99.53
2023-03-10T06:51:22.181Z,99.78
2023-03-10T06:53:50.136Z,99.04
2023-03-10T06:56:19.000Z,98.78
2023-03-10T06:58:46.800Z,97.82
2023-03-10T07:01:23.150Z,97.98
2023-03-10T07:03:52.214Z,97.49
2023-03-10T07:06:19.923Z,98.51
2023-03-10T07:08:47.610Z,98.29
2023-03-10T07:11:15.366Z,98.31
2023-03-10T07:13:43.162Z,98.19
2023-03-10T07:16:10.889Z,97.76
2023-03-10T07:18:38.535Z,98.61
2023-03-10T07:21:09.842Z,99.02
2023-03-10T07:23:37.538Z,99.30
2023-03-10T07:26:08.506Z,100.00
2023-03-10T07:28:36.793Z,100.00
2023-03-10T07:31:05.504Z,100.00
2023-03-10T07:33:33.397Z,100.00
2023-03-10T07:36:05.374Z,100.00
2023-03-10T07:38:34.669Z,100.00
2023-03-10T07:41:02.539Z,100.00
2023-03-10T07:43:30.953Z,100.00
2023-03-10T07:45:58.991Z,100.00
2023-03-10T07:48:26.794Z,100.00
2023-03-10T07:50:58.178Z,99.92
2023-03-10T07:53:26.778Z,99.07
2023-03-10T07:55:55.863Z,98.79
2023-03-10T07:58:24.284Z,97.42
2023-03-10T08:00:55.355Z,97.25
2023-03-10T08:03:23.158Z,97.17
2023-03-10T08:05:50.810Z,96.57
2023-03-10T08:08:18.843Z,96.58
2023-03-10T08:10:46.559Z,96.17
2023-03-10T08:13:15.789Z,96.84
2023-03-10T08:15:43.497Z,96.69
2023-03-10T08:18:11.159Z,96.30
2023-03-10T08:20:40.573Z,96.51
2023-03-10T08:23:08.383Z,95.37
2023-03-10T08:25:35.975Z,94.79
2023-03-10T08:28:03.729Z,94.81
2023-03-10T08:30:32.697Z,94.26
2023-03-10T08:33:00.354Z,92.23
2023-03-10T08:35:28.038Z,92.39
2023-03-10T08:37:55.646Z,92.31
2023-03-10T08:40:23.372Z,92.70
2023-03-10T08:42:50.979Z,92.50
2023-03-10T08:45:19.288Z,91.71
2023-03-10T08:47:48.273Z,91.70
2023-03-10T08:50:15.852Z,91.11
2023-03-10T08:52:43.600Z,90.79
2023-03-10T08:55:12.105Z,92.02
2023-03-10T08:57:39.730Z,91.64
2023-03-10T09:00:10.521Z,91.31
2023-03-10T09:02:38.116Z,91.66
2023-03-10T09:05:08.051Z,92.02
2023-03-10T09:07:35.682Z,91.55
2023-03-10T09:10:03.334Z,91.89
2023-03-10T09:12:36.082Z,90.60
2023-03-10T09:15:07.238Z,90.28
2023-03-10T09:17:34.911Z,90.41
2023-03-10T09:20:02.482Z,89.33
2023-03-10T09:22:31.415Z,89.50
2023-03-10T09:25:00.758Z,89.34
2023-03-10T09:27:28.490Z,89.80
2023-03-10T09:29:56.765Z,89.85
2023-03-10T09:32:25.699Z,90.20
2023-03-10T09:34:53.297Z,90.67
2023-03-10T09:37:20.872Z,90.97
2023-03-10T09:39:49.824Z,89.74
2023-03-10T09:42:37.896Z,89.17
2023-03-10T09:45:17.912Z,90.22
2023-03-10T09:47:53.154Z,90.68
2023-03-10T09:50:29.417Z,90.02
2023-03-10T09:53:00.509Z,89.30
2023-03-10T09:55:33.304Z,89.58
2023-03-10T09:58:03.094Z,89.33
2023-03-10T10:00:35.421Z,90.38
2023-03-10T10:03:09.054Z,90.77
2023-03-10T10:05:38.888Z,90.23
2023-03-10T10:08:16.018Z,90.76
2023-03-10T10:10:48.127Z,89.82
2023-03-10T10:13:17.403Z,90.31
2023-03-10T10:15:46.781Z,89.54
2023-03-10T10:18:20.834Z,89.25
2023-03-10T10:20:51.153Z,88.75
2023-03-10T10:23:26.394Z,87.22
2023-03-10T10:25:56.797Z,86.84
2023-03-10T10:28:28.192Z,87.14
2023-03-10T10:31:11.094Z,85.03
2023-03-10T10:33:59.166Z,85.22
2023-03-10T10:36:29.368Z,85.12
2023-03-10T10:38:57.879Z,85.13
2023-03-10T10:41:29.826Z,84.33
2023-03-10T10:44:01.212Z,84.40
2023-03-10T10:46:30.296Z,84.57
2023-03-10T10:49:08.966Z,83.93
2023-03-10T10:51:38.560Z,84.68
2023-03-10T10:54:21.819Z,85.46
2023-03-10T10:56:54.927Z,84.23
2023-03-10T10:59:23.622Z,84.41
2023-03-10T11:01:53.567Z,85.08
2023-03-10T11:04:25.363Z,85.02
2023-03-10T11:06:53.972Z,85.62
2023-03-10T11:09:23.272Z,85.39
2023-03-10T11:12:03.481Z,85.08
2023-03-10T11:14:38.218Z,85.67
2023-03-10T11:17:11.136Z,86.74
2023-03-10T11:19:50.988Z,86.73
2023-03-10T11:22:26.194Z,87.05
2023-03-10T11:24:58.080Z,89.04
2023-03-10T11:27:34.592Z,89.75
2023-03-10T11:30:11.256Z,91.60
2023-03-10T11:32:46.118Z,92.35
2023-03-10T11:35:21.014Z,92.79
2023-03-10T11:37:52.834Z,92.75
2023-03-10T11:40:24.454Z,92.40
2023-03-10T11:42:56.728Z,92.09
2023-03-10T11:45:28.948Z,90.54
2023-03-10T11:48:08.775Z,90.09
2023-03-10T11:50:42.590Z,89.48
2023-03-10T11:53:14.715Z,89.11
2023-03-10T11:55:42.312Z,87.94
2023-03-10T11:58:19.897Z,87.26
2023-03-10T12:00:47.745Z,88.56
2023-03-10T12:03:18.373Z,89.15
2023-03-10T12:05:49.946Z,88.74
2023-03-10T12:08:17.919Z,89.66
2023-03-10T12:10:45.537Z,90.15
2023-03-10T12:13:23.307Z,91.15
2023-03-10T12:15:52.143Z,91.53
2023-03-10T12:18:19.970Z,92.27
2023-03-10T12:20:47.552Z,91.67
2023-03-10T12:23:31.821Z,91.79
2023-03-10T12:25:59.491Z,92.32
2023-03-10T12:28:29.424Z,93.21
2023-03-10T12:30:58.477Z,94.69
2023-03-10T12:33:41.942Z,95.56
2023-03-10T12:36:11.676Z,97.20
2023-03-10T12:38:43.815Z,99.86
2023-03-10T12:41:11.553Z,100.00
2023-03-10T12:43:55.690Z,100.00
2023-03-10T12:46:27.544Z,99.33
2023-03-10T12:49:05.454Z,100.00
2023-03-10T12:51:37.645Z,98.96
2023-03-10T12:54:30.112Z,99.11
2023-03-10T12:57:04.177Z,100.00
2023-03-10T12:59:40.082Z,100.00
2023-03-10T13:02:20.034Z,100.00
2023-03-10T13:04:47.783Z,100.00
2023-03-10T13:07:16.818Z,100.00
2023-03-10T13:09:47.265Z,100.00
2023-03-10T13:12:21.678Z,100.00
2023-03-10T13:14:55.381Z,100.00
2023-03-10T13:17:25.643Z,100.00
2023-03-10T13:20:09.475Z,100.00
2023-03-10T13:22:37.009Z,100.00
2023-03-10T13:25:08.026Z,100.00
2023-03-10T13:27:36.053Z,100.00
2023-03-10T13:30:11.952Z,100.00
2023-03-10T13:32:40.008Z,100.00
2023-03-10T13:35:18.054Z,100.00
2023-03-10T13:37:45.668Z,100.00
2023-03-10T13:40:17.552Z,100.00
2023-03-10T13:42:47.982Z,100.00
2023-03-10T13:45:22.736Z,100.00
2023-03-10T13:47:52.226Z,100.00
2023-03-10T13:50:20.119Z,100.00
2023-03-10T13:52:54.072Z,100.00
2023-03-10T13:55:21.683Z,100.00
2023-03-10T13:57:49.418Z,100.00
2023-03-10T14:00:20.746Z,100.00
2023-03-10T14:02:49.751Z,100.00
2023-03-10T14:05:39.752Z,100.00
2023-03-10T14:08:07.702Z,100.00
2023-03-10T14:10:35.261Z,98.70
2023-03-10T14:13:02.812Z,98.06
2023-03-10T14:15:38.594Z,97.17
2023-03-10T14:18:21.100Z,92.90
2023-03-10T14:20:49.168Z,92.52
2023-03-10T14:23:28.013Z,93.28
2023-03-10T14:25:56.937Z,92.04
2023-03-10T14:28:26.769Z,92.27
2023-03-10T14:30:56.091Z,92.77
2023-03-10T14:33:24.003Z,94.15
2023-03-10T14:35:51.848Z,91.39
2023-03-10T14:38:19.596Z,89.86
2023-03-10T14:40:48.747Z,87.81
2023-03-10T14:43:18.548Z,87.97
2023-03-10T14:45:46.825Z,88.16
2023-03-10T14:48:18.081Z,87.94
2023-03-10T14:50:46.029Z,87.61
2023-03-10T14:53:15.289Z,88.51
2023-03-10T14:55:44.638Z,87.11
2023-03-10T14:58:13.670Z,86.39
2023-03-10T15:00:41.278Z,87.25
2023-03-10T15:03:10.588Z,88.21
2023-03-10T15:05:48.402Z,87.69
2023-03-10T15:08:17.237Z,89.23
2023-03-10T15:10:48.037Z,91.08
2023-03-10T15:13:16.099Z,91.12
2023-03-10T15:15:45.608Z,90.74
2023-03-10T15:18:14.931Z,91.74
2023-03-10T15:20:44.243Z,89.24
2023-03-10T15:23:16.509Z,89.90
2023-03-10T15:25:46.354Z,90.86
2023-03-10T15:28:14.302Z,90.51
2023-03-10T15:30:42.061Z,90.79
2023-03-10T15:33:10.697Z,90.95
2023-03-10T15:35:38.560Z,88.93
2023-03-10T15:38:07.819Z,88.00
2023-03-10T15:40:36.250Z,87.66
2023-03-10T15:43:03.861Z,88.21
2023-03-10T15:45:32.296Z,88.32
2023-03-10T15:47:59.972Z,88.70
2023-03-10T15:50:28.204Z,90.16
2023-03-10T15:52:57.035Z,89.72
2023-03-10T15:55:26.647Z,89.75
2023-03-10T15:57:55.061Z,90.30
2023-03-10T16:00:24.224Z,89.65
2023-03-10T16:02:52.142Z,89.91
2023-03-10T16:05:20.379Z,88.90
2023-03-10T16:07:47.960Z,89.03
2023-03-10T16:10:17.295Z,88.75
2023-03-10T16:12:46.457Z,89.06
2023-03-10T16:15:17.593Z,88.74
2023-03-10T16:17:45.779Z,87.98
2023-03-10T16:20:14.644Z,87.55
2023-03-10T16:22:43.123Z,85.88
2023-03-10T16:25:15.085Z,86.90
2023-03-10T16:27:42.858Z,88.19
2023-03-10T16:30:13.458Z,87.63
2023-03-10T16:32:41.042Z,86.76
2023-03-10T16:35:09.859Z,87.10
2023-03-10T16:37:37.419Z,87.95
2023-03-10T16:40:07.224Z,88.17
2023-03-10T16:42:36.726Z,88.53
2023-03-10T16:45:04.570Z,88.10
2023-03-10T16:47:33.942Z,87.49
2023-03-10T16:50:01.609Z,87.91
2023-03-10T16:52:29.189Z,88.35
2023-03-10T16:54:58.115Z,87.81
2023-03-10T16:57:25.891Z,88.44
2023-03-10T16:59:53.458Z,89.07
2023-03-10T17:02:21.072Z,88.25
2023-03-10T17:04:50.016Z,87.65
2023-03-10T17:07:19.182Z,86.46
2023-03-10T17:09:46.822Z,85.60
2023-03-10T17:12:14.575Z,85.29
2023-03-10T17:14:43.871Z,85.08
2023-03-10T17:17:11.464Z,85.83
2023-03-10T17:19:39.042Z,85.70
2023-03-10T17:22:07.936Z,85.37
2023-03-10T17:24:35.508Z,84.38
2023-03-10T17:27:03.111Z,84.79
2023-03-10T17:29:31.201Z,85.62
2023-03-10T17:31:58.808Z,85.47
2023-03-10T17:34:27.072Z,85.59
2023-03-10T17:36:54.638Z,84.98
2023-03-10T17:39:23.952Z,85.37
2023-03-10T17:41:51.663Z,85.50
2023-03-10T17:44:19.531Z,85.82
2023-03-10T17:46:47.343Z,84.77
2023-03-10T17:49:15.880Z,84.96
2023-03-10T17:51:44.592Z,85.17
2023-03-10T17:54:13.893Z,86.01
2023-03-10T17:56:43.107Z,86.35
2023-03-10T17:59:12.631Z,86.43
2023-03-10T18:01:40.270Z,86.68
2023-03-10T18:04:07.970Z,88.85
2023-03-10T18:06:36.672Z,90.16
2023-03-10T18:09:06.537Z,92.33
2023-03-10T18:11:34.844Z,92.88
2023-03-10T18:14:04.167Z,92.22
2023-03-10T18:16:33.542Z,90.80
2023-03-10T18:19:01.371Z,91.18
2023-03-10T18:21:29.318Z,89.47
2023-03-10T18:23:57.375Z,87.92
2023-03-10T18:26:27.501Z,86.28
2023-03-10T18:28:55.109Z,83.82
2023-03-10T18:31:26.551Z,84.85
2023-03-10T18:33:57.682Z,83.24
2023-03-10T18:36:25.745Z,82.41
2023-03-10T18:38:54.292Z,82.10
2023-03-10T18:41:23.777Z,81.36
2023-03-10T18:43:51.538Z,78.74
2023-03-10T18:46:19.229Z,77.97
2023-03-10T18:48:48.232Z,77.68
2023-03-10T18:51:15.812Z,77.98
2023-03-10T18:53:45.022Z,78.28
2023-03-10T18:56:12.660Z,78.66
2023-03-10T18:58:40.300Z,76.87
2023-03-10T19:03:58.807Z,75.65
2023-03-10T19:06:30.885Z,76.84
2023-03-10T19:08:58.445Z,77.59
2023-03-10T19:11:27.760Z,77.51
2023-03-10T19:13:55.506Z,77.84
2023-03-10T19:16:23.112Z,77.50
2023-03-10T19:18:50.729Z,77.65
2023-03-10T19:21:21.941Z,78.02
2023-03-10T19:23:50.346Z,78.25
2023-03-10T19:26:17.893Z,77.83
2023-03-10T19:28:45.503Z,79.09
2023-03-10T19:31:14.847Z,78.56
2023-03-10T19:33:43.024Z,78.98
2023-03-10T19:36:12.576Z,79.34
2023-03-10T19:38:42.886Z,78.72
2023-03-10T19:41:13.058Z,79.24
2023-03-10T19:43:40.649Z,79.83
2023-03-10T19:46:09.413Z,80.05
2023-03-10T19:48:37.149Z,78.49
2023-03-10T19:51:05.797Z,77.63
2023-03-10T19:53:33.651Z,80.45
2023-03-10T19:56:04.607Z,80.54
2023-03-10T19:58:32.780Z,80.05
2023-03-10T20:01:00.950Z,80.68
2023-03-10T20:03:31.215Z,78.88
2023-03-10T20:05:58.880Z,80.25
2023-03-10T20:08:26.512Z,80.94
2023-03-10T20:10:55.455Z,80.44
2023-03-10T20:13:24.380Z,81.92
2023-03-10T20:15:51.941Z,81.21
2023-03-10T20:18:21.080Z,82.09
2023-03-10T20:20:48.742Z,81.69
2023-03-10T20:23:16.791Z,79.93
2023-03-10T20:25:45.595Z,80.90
2023-03-10T20:28:14.108Z,80.83
2023-03-10T20:30:43.081Z,81.01
2023-03-10T20:33:10.722Z,81.29
2023-03-10T20:35:38.702Z,80.76
2023-03-10T20:38:06.576Z,81.26
2023-03-10T20:40:34.312Z,80.91
2023-03-10T20:43:01.911Z,80.09
2023-03-10T20:45:29.504Z,80.05
2023-03-10T20:47:58.954Z,80.89
2023-03-10T20:50:27.065Z,80.41
2023-03-10T20:52:55.023Z,79.02
2023-03-10T20:55:24.253Z,79.51
2023-03-10T20:57:53.004Z,79.49
2023-03-10T21:00:22.688Z,79.29
2023-03-10T21:02:52.571Z,79.22
2023-03-10T21:05:22.067Z,79.37
2023-03-10T21:07:49.933Z,79.11
2023-03-10T21:10:17.850Z,78.50
2023-03-10T21:12:45.651Z,78.69
2023-03-10T21:15:15.898Z,80.00
2023-03-10T21:17:43.938Z,80.08
2023-03-10T21:20:12.690Z,79.13
2023-03-10T21:22:41.770Z,80.43
2023-03-10T21:25:12.871Z,81.24
2023-03-10T21:27:40.493Z,80.99
2023-03-10T21:30:12.706Z,81.44
2023-03-10T21:32:40.429Z,81.56
2023-03-10T21:35:11.096Z,82.12
2023-03-10T21:37:41.757Z,82.26
2023-03-10T21:40:14.818Z,82.06
2023-03-10T21:42:42.746Z,81.63
2023-03-10T21:45:12.912Z,82.55
2023-03-10T21:47:40.586Z,83.37
2023-03-10T21:50:09.489Z,84.15
2023-03-10T21:52:37.100Z,85.24
2023-03-10T21:55:05.140Z,84.94
2023-03-10T21:57:34.109Z,85.86
2023-03-10T22:00:01.715Z,86.48
2023-03-10T22:02:31.185Z,85.66
2023-03-10T22:04:58.812Z,86.46
2023-03-10T22:07:26.428Z,87.13
2023-03-10T22:09:54.020Z,87.51
2023-03-10T22:12:21.601Z,87.61
2023-03-10T22:14:55.980Z,88.37
2023-03-10T22:17:23.654Z,89.41
2023-03-10T22:19:52.004Z,90.25
2023-03-10T22:22:19.559Z,90.46
2023-03-10T22:24:47.327Z,91.05
2023-03-10T22:27:15.064Z,91.36
2023-03-10T22:29:43.488Z,91.40
2023-03-10T22:32:12.627Z,92.66
2023-03-10T22:34:40.268Z,91.79
2023-03-10T22:37:07.860Z,87.91
2023-03-10T22:39:37.635Z,85.94
2023-03-10T22:42:05.780Z,83.67
2023-03-10T22:44:35.538Z,83.71
2023-03-10T22:47:03.410Z,82.58
2023-03-10T22:49:33.012Z,81.87
2023-03-10T22:52:00.650Z,80.22
2023-03-10T22:54:28.475Z,78.78
2023-03-10T22:56:56.108Z,78.30
2023-03-10T22:59:23.705Z,79.12
2023-03-10T23:01:51.349Z,79.34
2023-03-10T23:04:19.487Z,79.12
2023-03-10T23:06:48.411Z,79.74
2023-03-10T23:09:15.987Z,77.64
2023-03-10T23:11:43.612Z,77.70
2023-03-10T23:14:11.821Z,79.61
2023-03-10T23:16:39.552Z,79.29
2023-03-10T23:19:08.753Z,79.42
2023-03-10T23:21:36.580Z,79.71
2023-03-10T23:24:06.234Z,78.06
2023-03-10T23:26:35.075Z,77.88
2023-03-10T23:29:03.154Z,78.22
2023-03-10T23:31:30.803Z,77.63
2023-03-10T23:33:58.362Z,78.01
2023-03-10T23:36:25.994Z,78.83
2023-03-10T23:38:53.599Z,78.86
2023-03-10T23:41:22.679Z,78.24
2023-03-10T23:43:51.584Z,78.85
2023-03-10T23:46:21.770Z,79.42
2023-03-10T23:48:49.795Z,79.51
2023-03-10T23:51:18.246Z,79.18
2023-03-10T23:53:46.095Z,79.52
2023-03-10T23:56:13.784Z,78.49
2023-03-10T23:58:42.737Z,78.64
